sensor_id;sensor_type;location;lat;lon;timestamp;temperature;humidity
5136;DHT22;2586;48.710;9.202;2022-09-16T00:01:09;13.10;1.00
5136;DHT22;2586;48.710;9.202;2022-09-16T00:03:35;13.00;1.00
5136;DHT22;2586;48.710;9.202;2022-09-16T00:06:01;13.10;1.00
5136;DHT22;2586;48.710;9.202;2022-09-16T00:08:26;13.10;1.00
5136;DHT22;2586;48.710;9.202;2022-09-16T00:10:52;13.10;1.00
5136;DHT22;2586;48.710;9.202;2022-09-16T00:13:18;13.20;1.00
5136;DHT22;2586;48.710;9.202;2022-09-16T00:15:48;13.20;1.00
5136;DHT22;2586;48.710;9.202;2022-09-16T00:18:15;13.30;1.00
5136;DHT22;2586;48.710;9.202;2022-09-16T00:20:48;13.30;99.90
5136;DHT22;2586;48.710;9.202;2022-09-16T00:23:16;13.30;99.90
5136;DHT22;2586;48.710;9.202;2022-09-16T00:25:41;13.30;99.90
5136;DHT22;2586;48.710;9.202;2022-09-16T00:28:07;13.20;99.90
5136;DHT22;2586;48.710;9.202;2022-09-16T00:30:33;13.20;99.90
5136;DHT22;2586;48.710;9.202;2022-09-16T00:32:58;13.20;1.00
5136;DHT22;2586;48.710;9.202;2022-09-16T00:35:24;13.20;1.00
5136;DHT22;2586;48.710;9.202;2022-09-16T00:37:49;13.20;1.00
5136;DHT22;2586;48.710;9.202;2022-09-16T00:40:15;13.20;1.00
5136;DHT22;2586;48.710;9.202;2022-09-16T00:42:41;13.20;1.00
5136;DHT22;2586;48.710;9.202;2022-09-16T00:45:33;13.20;1.00
5136;DHT22;2586;48.710;9.202;2022-09-16T00:48:02;13.30;1.00
5136;DHT22;2586;48.710;9.202;2022-09-16T00:53:02;13.10;1.00
5136;DHT22;2586;48.710;9.202;2022-09-16T00:55:31;13.10;1.00
5136;DHT22;2586;48.710;9.202;2022-09-16T00:58:03;13.10;1.00
5136;DHT22;2586;48.710;9.202;2022-09-16T01:00:30;13.00;1.00
5136;DHT22;2586;48.710;9.202;2022-09-16T01:02:57;13.00;1.00
5136;DHT22;2586;48.710;9.202;2022-09-16T01:05:25;13.00;1.00
5136;DHT22;2586;48.710;9.202;2022-09-16T01:07:52;13.00;1.00
5136;DHT22;2586;48.710;9.202;2022-09-16T01:10:21;13.00;1.00
5136;DHT22;2586;48.710;9.202;2022-09-16T01:12:56;12.90;1.00
5136;DHT22;2586;48.710;9.202;2022-09-16T01:15:27;12.80;1.00
5136;DHT22;2586;48.710;9.202;2022-09-16T01:32:03;12.70;3.20
5136;DHT22;2586;48.710;9.202;2022-09-16T01:34:51;12.70;2.80
5136;DHT22;2586;48.710;9.202;2022-09-16T01:37:40;12.80;1.00
5136;DHT22;2586;48.710;9.202;2022-09-16T01:40:33;12.80;1.00
5136;DHT22;2586;48.710;9.202;2022-09-16T01:43:26;12.80;1.00
5136;DHT22;2586;48.710;9.202;2022-09-16T01:45:59;12.80;1.00
5136;DHT22;2586;48.710;9.202;2022-09-16T01:48:34;12.90;1.00
5136;DHT22;2586;48.710;9.202;2022-09-16T01:51:24;12.90;1.00
5136;DHT22;2586;48.710;9.202;2022-09-16T01:54:11;12.80;1.00
5136;DHT22;2586;48.710;9.202;2022-09-16T02:05:13;12.60;1.00
5136;DHT22;2586;48.710;9.202;2022-09-16T02:07:44;12.50;1.00
5136;DHT22;2586;48.710;9.202;2022-09-16T02:10:18;12.50;26.00
5136;DHT22;2586;48.710;9.202;2022-09-16T02:12:48;12.40;67.40
5136;DHT22;2586;48.710;9.202;2022-09-16T02:15:18;12.40;99.90
5136;DHT22;2586;48.710;9.202;2022-09-16T02:17:51;12.40;95.20
5136;DHT22;2586;48.710;9.202;2022-09-16T02:20:24;12.50;99.90
5136;DHT22;2586;48.710;9.202;2022-09-16T02:22:59;12.40;92.30
5136;DHT22;2586;48.710;9.202;2022-09-16T02:25:27;12.40;91.30
5136;DHT22;2586;48.710;9.202;2022-09-16T02:27:56;12.50;93.40
5136;DHT22;2586;48.710;9.202;2022-09-16T02:30:24;12.60;57.40
5136;DHT22;2586;48.710;9.202;2022-09-16T02:32:55;12.60;16.50
5136;DHT22;2586;48.710;9.202;2022-09-16T02:35:22;12.70;1.00
5136;DHT22;2586;48.710;9.202;2022-09-16T02:38:00;12.70;1.00
5136;DHT22;2586;48.710;9.202;2022-09-16T02:40:36;12.80;1.00
5136;DHT22;2586;48.710;9.202;2022-09-16T02:43:06;12.80;1.00
5136;DHT22;2586;48.710;9.202;2022-09-16T02:56:55;12.70;1.00
5136;DHT22;2586;48.710;9.202;2022-09-16T02:59:22;12.70;1.00
5136;DHT22;2586;48.710;9.202;2022-09-16T03:01:48;12.80;1.00
5136;DHT22;2586;48.710;9.202;2022-09-16T03:04:15;12.70;1.00
5136;DHT22;2586;48.710;9.202;2022-09-16T03:06:42;12.80;1.00
5136;DHT22;2586;48.710;9.202;2022-09-16T03:09:09;12.80;1.00
5136;DHT22;2586;48.710;9.202;2022-09-16T03:22:12;12.90;1.00
5136;DHT22;2586;48.710;9.202;2022-09-16T03:24:59;12.80;1.00
5136;DHT22;2586;48.710;9.202;2022-09-16T03:27:47;12.80;99.90
5136;DHT22;2586;48.710;9.202;2022-09-16T03:30:15;12.80;1.00
5136;DHT22;2586;48.710;9.202;2022-09-16T03:32:50;12.80;99.90
5136;DHT22;2586;48.710;9.202;2022-09-16T03:35:26;12.70;1.00
5136;DHT22;2586;48.710;9.202;2022-09-16T03:37:55;12.80;18.00
5136;DHT22;2586;48.710;9.202;2022-09-16T03:40:22;12.80;1.00
5136;DHT22;2586;48.710;9.202;2022-09-16T03:42:49;12.70;1.00
5136;DHT22;2586;48.710;9.202;2022-09-16T03:45:18;12.80;1.00
5136;DHT22;2586;48.710;9.202;2022-09-16T03:47:45;12.90;99.90
5136;DHT22;2586;48.710;9.202;2022-09-16T03:50:11;12.90;88.20
5136;DHT22;2586;48.710;9.202;2022-09-16T03:52:38;12.90;1.00
5136;DHT22;2586;48.710;9.202;2022-09-16T03:55:05;13.00;1.00
5136;DHT22;2586;48.710;9.202;2022-09-16T03:57:32;13.00;1.00
5136;DHT22;2586;48.710;9.202;2022-09-16T03:59:57;13.10;1.00
5136;DHT22;2586;48.710;9.202;2022-09-16T04:02:23;13.10;1.00
5136;DHT22;2586;48.710;9.202;2022-09-16T04:04:48;13.10;1.00
5136;DHT22;2586;48.710;9.202;2022-09-16T04:07:14;13.10;1.00
5136;DHT22;2586;48.710;9.202;2022-09-16T04:09:40;13.00;99.90
5136;DHT22;2586;48.710;9.202;2022-09-16T04:12:07;13.00;99.90
5136;DHT22;2586;48.710;9.202;2022-09-16T04:14:33;13.00;1.00
5136;DHT22;2586;48.710;9.202;2022-09-16T04:16:59;13.00;1.00
5136;DHT22;2586;48.710;9.202;2022-09-16T04:19:25;13.00;1.00
5136;DHT22;2586;48.710;9.202;2022-09-16T04:21:51;13.00;89.10
5136;DHT22;2586;48.710;9.202;2022-09-16T04:24:16;12.80;99.90
5136;DHT22;2586;48.710;9.202;2022-09-16T04:26:43;12.70;44.60
5136;DHT22;2586;48.710;9.202;2022-09-16T04:29:09;12.70;99.90
5136;DHT22;2586;48.710;9.202;2022-09-16T04:31:35;12.70;1.00
5136;DHT22;2586;48.710;9.202;2022-09-16T04:34:01;12.80;20.90
5136;DHT22;2586;48.710;9.202;2022-09-16T04:36:27;12.80;1.00
5136;DHT22;2586;48.710;9.202;2022-09-16T04:38:52;12.90;1.00
5136;DHT22;2586;48.710;9.202;2022-09-16T04:41:20;12.90;99.90
5136;DHT22;2586;48.710;9.202;2022-09-16T04:43:52;12.80;1.00
5136;DHT22;2586;48.710;9.202;2022-09-16T04:46:18;12.70;1.00
5136;DHT22;2586;48.710;9.202;2022-09-16T04:48:48;12.80;1.00
5136;DHT22;2586;48.710;9.202;2022-09-16T04:51:14;12.80;99.90
5136;DHT22;2586;48.710;9.202;2022-09-16T04:53:40;12.80;66.30
5136;DHT22;2586;48.710;9.202;2022-09-16T04:56:17;12.90;1.00
5136;DHT22;2586;48.710;9.202;2022-09-16T04:58:54;12.90;99.90
5136;DHT22;2586;48.710;9.202;2022-09-16T05:01:29;12.90;99.90
5136;DHT22;2586;48.710;9.202;2022-09-16T05:03:57;13.00;1.00
5136;DHT22;2586;48.710;9.202;2022-09-16T05:06:26;13.00;1.00
5136;DHT22;2586;48.710;9.202;2022-09-16T05:08:53;13.00;1.00
5136;DHT22;2586;48.710;9.202;2022-09-16T05:11:25;13.00;99.90
5136;DHT22;2586;48.710;9.202;2022-09-16T05:13:52;13.00;99.90
5136;DHT22;2586;48.710;9.202;2022-09-16T05:16:21;13.00;1.00
5136;DHT22;2586;48.710;9.202;2022-09-16T05:18:48;13.00;99.90
5136;DHT22;2586;48.710;9.202;2022-09-16T05:21:17;13.00;99.90
5136;DHT22;2586;48.710;9.202;2022-09-16T05:23:44;13.00;99.90
5136;DHT22;2586;48.710;9.202;2022-09-16T05:26:18;13.00;99.90
5136;DHT22;2586;48.710;9.202;2022-09-16T05:28:44;12.90;99.90
5136;DHT22;2586;48.710;9.202;2022-09-16T05:31:15;12.90;99.90
5136;DHT22;2586;48.710;9.202;2022-09-16T05:33:43;12.90;1.00
5136;DHT22;2586;48.710;9.202;2022-09-16T05:36:12;12.90;99.90
5136;DHT22;2586;48.710;9.202;2022-09-16T05:38:38;12.90;1.00
5136;DHT22;2586;48.710;9.202;2022-09-16T05:41:04;12.90;1.00
5136;DHT22;2586;48.710;9.202;2022-09-16T05:43:30;12.80;1.00
5136;DHT22;2586;48.710;9.202;2022-09-16T05:45:56;12.80;1.00
5136;DHT22;2586;48.710;9.202;2022-09-16T05:48:22;12.80;1.00
5136;DHT22;2586;48.710;9.202;2022-09-16T05:50:56;12.70;1.00
5136;DHT22;2586;48.710;9.202;2022-09-16T05:53:22;12.70;72.60
5136;DHT22;2586;48.710;9.202;2022-09-16T05:55:54;12.70;77.20
5136;DHT22;2586;48.710;9.202;2022-09-16T05:58:20;12.70;97.30
5136;DHT22;2586;48.710;9.202;2022-09-16T06:00:46;12.70;64.70
5136;DHT22;2586;48.710;9.202;2022-09-16T06:03:12;12.70;1.00
5136;DHT22;2586;48.710;9.202;2022-09-16T06:05:38;12.70;1.00
5136;DHT22;2586;48.710;9.202;2022-09-16T06:08:03;12.70;1.00
5136;DHT22;2586;48.710;9.202;2022-09-16T06:10:29;12.70;1.00
5136;DHT22;2586;48.710;9.202;2022-09-16T06:12:55;12.70;1.00
5136;DHT22;2586;48.710;9.202;2022-09-16T06:15:20;12.70;1.00
5136;DHT22;2586;48.710;9.202;2022-09-16T06:17:46;12.60;1.00
5136;DHT22;2586;48.710;9.202;2022-09-16T06:20:11;12.60;1.00
5136;DHT22;2586;48.710;9.202;2022-09-16T06:22:39;12.60;1.00
5136;DHT22;2586;48.710;9.202;2022-09-16T06:25:05;12.60;1.00
5136;DHT22;2586;48.710;9.202;2022-09-16T06:27:32;12.60;1.00
5136;DHT22;2586;48.710;9.202;2022-09-16T06:29:57;12.60;1.00
5136;DHT22;2586;48.710;9.202;2022-09-16T06:32:23;12.60;1.00
5136;DHT22;2586;48.710;9.202;2022-09-16T06:34:49;12.60;1.00
5136;DHT22;2586;48.710;9.202;2022-09-16T06:37:15;12.60;1.00
5136;DHT22;2586;48.710;9.202;2022-09-16T06:39:41;12.60;1.00
5136;DHT22;2586;48.710;9.202;2022-09-16T06:42:07;12.70;34.50
5136;DHT22;2586;48.710;9.202;2022-09-16T06:44:33;12.60;1.00
5136;DHT22;2586;48.710;9.202;2022-09-16T06:46:58;12.60;1.00
5136;DHT22;2586;48.710;9.202;2022-09-16T06:49:24;12.70;1.00
5136;DHT22;2586;48.710;9.202;2022-09-16T06:51:49;12.70;1.00
5136;DHT22;2586;48.710;9.202;2022-09-16T06:54:16;12.80;1.00
5136;DHT22;2586;48.710;9.202;2022-09-16T06:56:41;12.80;1.00
5136;DHT22;2586;48.710;9.202;2022-09-16T06:59:08;13.00;1.00
5136;DHT22;2586;48.710;9.202;2022-09-16T07:01:34;12.90;1.00
5136;DHT22;2586;48.710;9.202;2022-09-16T07:04:05;12.90;1.00
5136;DHT22;2586;48.710;9.202;2022-09-16T07:06:32;13.10;1.00
5136;DHT22;2586;48.710;9.202;2022-09-16T07:08:58;13.00;99.90
5136;DHT22;2586;48.710;9.202;2022-09-16T07:11:24;13.00;1.00
5136;DHT22;2586;48.710;9.202;2022-09-16T07:13:50;12.80;99.90
5136;DHT22;2586;48.710;9.202;2022-09-16T07:16:22;12.70;99.90
5136;DHT22;2586;48.710;9.202;2022-09-16T07:18:55;12.60;99.90
5136;DHT22;2586;48.710;9.202;2022-09-16T07:21:23;12.50;1.00
5136;DHT22;2586;48.710;9.202;2022-09-16T07:23:57;12.50;1.00
5136;DHT22;2586;48.710;9.202;2022-09-16T07:26:26;12.40;1.00
5136;DHT22;2586;48.710;9.202;2022-09-16T07:28:53;12.30;1.00
5136;DHT22;2586;48.710;9.202;2022-09-16T07:31:22;12.30;1.00
5136;DHT22;2586;48.710;9.202;2022-09-16T07:33:53;12.30;1.00
5136;DHT22;2586;48.710;9.202;2022-09-16T07:36:21;12.40;1.00
5136;DHT22;2586;48.710;9.202;2022-09-16T07:38:47;12.40;1.00
5136;DHT22;2586;48.710;9.202;2022-09-16T07:41:18;12.40;1.00
5136;DHT22;2586;48.710;9.202;2022-09-16T07:43:45;12.40;1.00
5136;DHT22;2586;48.710;9.202;2022-09-16T07:46:12;12.50;7.80
5136;DHT22;2586;48.710;9.202;2022-09-16T07:48:39;12.60;14.40
5136;DHT22;2586;48.710;9.202;2022-09-16T07:51:10;12.40;1.00
5136;DHT22;2586;48.710;9.202;2022-09-16T07:53:37;12.40;1.00
5136;DHT22;2586;48.710;9.202;2022-09-16T07:56:16;12.50;29.20
5136;DHT22;2586;48.710;9.202;2022-09-16T07:58:43;12.50;19.20
5136;DHT22;2586;48.710;9.202;2022-09-16T08:01:10;12.50;14.60
5136;DHT22;2586;48.710;9.202;2022-09-16T08:03:37;12.60;88.60
5136;DHT22;2586;48.710;9.202;2022-09-16T08:06:09;12.70;95.50
5136;DHT22;2586;48.710;9.202;2022-09-16T08:08:35;12.70;95.10
5136;DHT22;2586;48.710;9.202;2022-09-16T08:11:01;12.70;85.70
5136;DHT22;2586;48.710;9.202;2022-09-16T08:13:29;12.70;60.20
5136;DHT22;2586;48.710;9.202;2022-09-16T08:16:00;12.70;98.80
5136;DHT22;2586;48.710;9.202;2022-09-16T08:18:26;12.70;45.90
5136;DHT22;2586;48.710;9.202;2022-09-16T08:20:52;12.70;1.00
5136;DHT22;2586;48.710;9.202;2022-09-16T08:23:17;12.90;63.80
5136;DHT22;2586;48.710;9.202;2022-09-16T08:25:43;13.10;20.90
5136;DHT22;2586;48.710;9.202;2022-09-16T08:28:14;13.30;1.00
5136;DHT22;2586;48.710;9.202;2022-09-16T08:30:40;13.40;1.00
5136;DHT22;2586;48.710;9.202;2022-09-16T08:33:06;13.50;1.00
5136;DHT22;2586;48.710;9.202;2022-09-16T08:35:32;13.70;1.00
5136;DHT22;2586;48.710;9.202;2022-09-16T08:37:58;13.80;1.00
5136;DHT22;2586;48.710;9.202;2022-09-16T08:40:33;13.80;1.00
5136;DHT22;2586;48.710;9.202;2022-09-16T08:45:48;13.80;1.00
5136;DHT22;2586;48.710;9.202;2022-09-16T08:49:08;13.60;8.20
5136;DHT22;2586;48.710;9.202;2022-09-16T08:51:15;13.40;1.00
5136;DHT22;2586;48.710;9.202;2022-09-16T08:54:00;13.30;99.90
5136;DHT22;2586;48.710;9.202;2022-09-16T08:56:29;13.30;1.00
5136;DHT22;2586;48.710;9.202;2022-09-16T08:58:57;13.30;99.90
5136;DHT22;2586;48.710;9.202;2022-09-16T09:01:33;13.20;1.00
5136;DHT22;2586;48.710;9.202;2022-09-16T09:04:00;13.20;99.90
5136;DHT22;2586;48.710;9.202;2022-09-16T09:14:59;13.20;1.00
5136;DHT22;2586;48.710;9.202;2022-09-16T09:18:04;13.30;99.90
5136;DHT22;2586;48.710;9.202;2022-09-16T09:23:32;13.50;1.00
5136;DHT22;2586;48.710;9.202;2022-09-16T09:28:48;13.30;50.30
5136;DHT22;2586;48.710;9.202;2022-09-16T09:43:15;13.40;51.30
5136;DHT22;2586;48.710;9.202;2022-09-16T09:46:11;13.40;1.00
5136;DHT22;2586;48.710;9.202;2022-09-16T09:48:54;13.50;1.00
5136;DHT22;2586;48.710;9.202;2022-09-16T09:54:04;13.70;1.00
5136;DHT22;2586;48.710;9.202;2022-09-16T09:56:36;13.60;1.00
5136;DHT22;2586;48.710;9.202;2022-09-16T09:59:35;13.60;1.00
5136;DHT22;2586;48.710;9.202;2022-09-16T10:02:01;13.50;99.90
5136;DHT22;2586;48.710;9.202;2022-09-16T10:04:36;13.40;99.90
5136;DHT22;2586;48.710;9.202;2022-09-16T10:07:03;13.40;1.00
5136;DHT22;2586;48.710;9.202;2022-09-16T10:09:30;13.40;99.90
5136;DHT22;2586;48.710;9.202;2022-09-16T10:11:56;13.30;1.00
5136;DHT22;2586;48.710;9.202;2022-09-16T10:14:34;13.30;1.00
5136;DHT22;2586;48.710;9.202;2022-09-16T10:17:04;13.30;99.90
5136;DHT22;2586;48.710;9.202;2022-09-16T10:19:57;13.40;1.00
5136;DHT22;2586;48.710;9.202;2022-09-16T10:22:29;13.60;99.90
5136;DHT22;2586;48.710;9.202;2022-09-16T10:25:17;13.70;95.30
5136;DHT22;2586;48.710;9.202;2022-09-16T10:27:54;13.80;1.00
5136;DHT22;2586;48.710;9.202;2022-09-16T10:30:20;13.70;99.90
5136;DHT22;2586;48.710;9.202;2022-09-16T10:33:04;13.60;1.00
5136;DHT22;2586;48.710;9.202;2022-09-16T10:35:34;14.00;99.90
5136;DHT22;2586;48.710;9.202;2022-09-16T10:38:04;14.20;99.90
5136;DHT22;2586;48.710;9.202;2022-09-16T10:40:31;14.30;1.00
5136;DHT22;2586;48.710;9.202;2022-09-16T10:43:02;14.30;1.00
5136;DHT22;2586;48.710;9.202;2022-09-16T10:45:34;14.30;99.90
5136;DHT22;2586;48.710;9.202;2022-09-16T10:48:11;14.30;1.00
5136;DHT22;2586;48.710;9.202;2022-09-16T10:50:37;14.20;99.90
5136;DHT22;2586;48.710;9.202;2022-09-16T10:53:18;14.20;1.00
5136;DHT22;2586;48.710;9.202;2022-09-16T10:55:55;13.90;1.00
5136;DHT22;2586;48.710;9.202;2022-09-16T10:58:22;13.70;1.00
5136;DHT22;2586;48.710;9.202;2022-09-16T11:19:59;13.70;99.90
5136;DHT22;2586;48.710;9.202;2022-09-16T11:36:47;13.70;1.00
5136;DHT22;2586;48.710;9.202;2022-09-16T11:42:20;13.60;1.00
5136;DHT22;2586;48.710;9.202;2022-09-16T12:04:08;14.30;99.90
5136;DHT22;2586;48.710;9.202;2022-09-16T12:06:44;14.30;99.90
5136;DHT22;2586;48.710;9.202;2022-09-16T12:09:21;14.70;99.90
5136;DHT22;2586;48.710;9.202;2022-09-16T12:11:57;14.90;1.00
5136;DHT22;2586;48.710;9.202;2022-09-16T12:14:40;15.20;1.00
5136;DHT22;2586;48.710;9.202;2022-09-16T12:17:15;15.50;1.00
5136;DHT22;2586;48.710;9.202;2022-09-16T12:19:56;15.70;1.00
5136;DHT22;2586;48.710;9.202;2022-09-16T12:25:28;15.90;1.00
5136;DHT22;2586;48.710;9.202;2022-09-16T12:28:02;16.10;1.00
5136;DHT22;2586;48.710;9.202;2022-09-16T12:30:37;16.10;99.90
5136;DHT22;2586;48.710;9.202;2022-09-16T12:38:17;15.70;1.00
5136;DHT22;2586;48.710;9.202;2022-09-16T12:43:31;15.30;25.50
5136;DHT22;2586;48.710;9.202;2022-09-16T12:46:30;15.10;1.00
5136;DHT22;2586;48.710;9.202;2022-09-16T13:02:40;14.10;99.90
5136;DHT22;2586;48.710;9.202;2022-09-16T13:05:29;14.20;1.00
5136;DHT22;2586;48.710;9.202;2022-09-16T13:07:59;14.20;99.90
5136;DHT22;2586;48.710;9.202;2022-09-16T13:10:38;14.20;99.90
5136;DHT22;2586;48.710;9.202;2022-09-16T13:13:05;14.50;99.90
5136;DHT22;2586;48.710;9.202;2022-09-16T13:15:37;14.70;99.90
5136;DHT22;2586;48.710;9.202;2022-09-16T13:20:52;15.00;99.90
5136;DHT22;2586;48.710;9.202;2022-09-16T13:23:24;15.20;1.00
5136;DHT22;2586;48.710;9.202;2022-09-16T13:26:02;15.30;1.00
5136;DHT22;2586;48.710;9.202;2022-09-16T13:38:50;16.50;99.90
5136;DHT22;2586;48.710;9.202;2022-09-16T13:44:01;17.90;99.90
5136;DHT22;2586;48.710;9.202;2022-09-16T13:46:35;18.00;30.00
5136;DHT22;2586;48.710;9.202;2022-09-16T13:49:14;17.80;26.50
5136;DHT22;2586;48.710;9.202;2022-09-16T13:51:45;17.20;34.60
5136;DHT22;2586;48.710;9.202;2022-09-16T13:54:33;17.40;62.00
5136;DHT22;2586;48.710;9.202;2022-09-16T14:05:53;16.90;99.90
5136;DHT22;2586;48.710;9.202;2022-09-16T14:08:26;16.80;99.90
5136;DHT22;2586;48.710;9.202;2022-09-16T14:11:04;16.70;99.90
5136;DHT22;2586;48.710;9.202;2022-09-16T14:13:37;16.70;99.90
5136;DHT22;2586;48.710;9.202;2022-09-16T14:16:11;16.70;55.40
5136;DHT22;2586;48.710;9.202;2022-09-16T14:18:41;16.80;59.90
5136;DHT22;2586;48.710;9.202;2022-09-16T14:21:19;17.20;56.80
5136;DHT22;2586;48.710;9.202;2022-09-16T14:23:45;18.60;41.30
5136;DHT22;2586;48.710;9.202;2022-09-16T14:26:13;19.90;1.00
5136;DHT22;2586;48.710;9.202;2022-09-16T14:28:39;20.70;1.00
5136;DHT22;2586;48.710;9.202;2022-09-16T14:31:27;21.00;1.00
5136;DHT22;2586;48.710;9.202;2022-09-16T14:33:56;21.50;1.00
5136;DHT22;2586;48.710;9.202;2022-09-16T14:36:25;21.60;1.00
5136;DHT22;2586;48.710;9.202;2022-09-16T14:39:01;20.60;1.00
5136;DHT22;2586;48.710;9.202;2022-09-16T14:41:40;19.80;1.00
5136;DHT22;2586;48.710;9.202;2022-09-16T14:44:14;18.80;1.00
5136;DHT22;2586;48.710;9.202;2022-09-16T14:46:44;18.20;1.00
5136;DHT22;2586;48.710;9.202;2022-09-16T14:49:13;18.60;1.00
5136;DHT22;2586;48.710;9.202;2022-09-16T14:51:49;18.90;1.00
5136;DHT22;2586;48.710;9.202;2022-09-16T14:54:22;20.20;1.00
5136;DHT22;2586;48.710;9.202;2022-09-16T14:57:02;21.40;1.00
5136;DHT22;2586;48.710;9.202;2022-09-16T14:59:36;22.50;1.00
5136;DHT22;2586;48.710;9.202;2022-09-16T15:02:15;21.00;1.00
5136;DHT22;2586;48.710;9.202;2022-09-16T15:04:44;19.70;1.00
5136;DHT22;2586;48.710;9.202;2022-09-16T15:07:51;18.90;1.00
5136;DHT22;2586;48.710;9.202;2022-09-16T15:12:48;18.30;1.00
5136;DHT22;2586;48.710;9.202;2022-09-16T15:17:40;20.00;1.00
5136;DHT22;2586;48.710;9.202;2022-09-16T15:20:18;21.30;1.00
5136;DHT22;2586;48.710;9.202;2022-09-16T15:22:45;21.40;1.00
5136;DHT22;2586;48.710;9.202;2022-09-16T15:25:22;20.40;1.00
5136;DHT22;2586;48.710;9.202;2022-09-16T15:27:49;19.10;1.00
5136;DHT22;2586;48.710;9.202;2022-09-16T15:30:22;18.20;1.00
5136;DHT22;2586;48.710;9.202;2022-09-16T15:32:48;17.90;1.00
5136;DHT22;2586;48.710;9.202;2022-09-16T15:35:26;19.40;1.00
5136;DHT22;2586;48.710;9.202;2022-09-16T15:37:53;20.90;1.00
5136;DHT22;2586;48.710;9.202;2022-09-16T15:43:17;19.70;1.00
5136;DHT22;2586;48.710;9.202;2022-09-16T15:45:59;19.00;1.00
5136;DHT22;2586;48.710;9.202;2022-09-16T15:48:30;18.90;1.00
5136;DHT22;2586;48.710;9.202;2022-09-16T15:51:03;18.70;1.00
5136;DHT22;2586;48.710;9.202;2022-09-16T15:56:04;19.10;1.00
5136;DHT22;2586;48.710;9.202;2022-09-16T16:01:03;17.80;1.00
5136;DHT22;2586;48.710;9.202;2022-09-16T16:03:59;19.40;1.00
5136;DHT22;2586;48.710;9.202;2022-09-16T16:11:57;20.90;1.00
5136;DHT22;2586;48.710;9.202;2022-09-16T16:14:26;19.60;1.00
5136;DHT22;2586;48.710;9.202;2022-09-16T16:16:52;18.40;1.00
5136;DHT22;2586;48.710;9.202;2022-09-16T16:19:18;17.90;1.00
5136;DHT22;2586;48.710;9.202;2022-09-16T16:21:43;18.10;1.00
5136;DHT22;2586;48.710;9.202;2022-09-16T16:24:14;17.50;1.00
5136;DHT22;2586;48.710;9.202;2022-09-16T16:26:40;16.80;1.00
5136;DHT22;2586;48.710;9.202;2022-09-16T16:29:06;16.20;1.00
5136;DHT22;2586;48.710;9.202;2022-09-16T16:31:32;16.50;1.00
5136;DHT22;2586;48.710;9.202;2022-09-16T16:33:57;17.30;1.00
5136;DHT22;2586;48.710;9.202;2022-09-16T16:36:23;16.90;1.00
5136;DHT22;2586;48.710;9.202;2022-09-16T16:38:49;16.50;1.00
5136;DHT22;2586;48.710;9.202;2022-09-16T16:41:19;16.10;1.00
5136;DHT22;2586;48.710;9.202;2022-09-16T16:43:45;15.90;1.00
5136;DHT22;2586;48.710;9.202;2022-09-16T16:46:10;15.70;3.50
5136;DHT22;2586;48.710;9.202;2022-09-16T16:48:36;15.50;27.30
5136;DHT22;2586;48.710;9.202;2022-09-16T16:51:06;15.40;36.40
5136;DHT22;2586;48.710;9.202;2022-09-16T16:53:33;15.30;71.60
5136;DHT22;2586;48.710;9.202;2022-09-16T16:56:11;15.10;92.20
5136;DHT22;2586;48.710;9.202;2022-09-16T16:58:38;15.00;99.90
5136;DHT22;2586;48.710;9.202;2022-09-16T17:01:15;14.80;99.90
5136;DHT22;2586;48.710;9.202;2022-09-16T17:03:43;14.60;99.90
5136;DHT22;2586;48.710;9.202;2022-09-16T17:06:15;14.50;99.90
5136;DHT22;2586;48.710;9.202;2022-09-16T17:08:40;14.40;99.90
5136;DHT22;2586;48.710;9.202;2022-09-16T17:11:15;14.30;99.90
5136;DHT22;2586;48.710;9.202;2022-09-16T17:13:49;14.20;99.90
5136;DHT22;2586;48.710;9.202;2022-09-16T17:16:18;14.10;99.90
5136;DHT22;2586;48.710;9.202;2022-09-16T17:18:44;14.00;1.00
5136;DHT22;2586;48.710;9.202;2022-09-16T17:21:12;13.90;1.00
5136;DHT22;2586;48.710;9.202;2022-09-16T17:23:38;13.80;1.00
5136;DHT22;2586;48.710;9.202;2022-09-16T17:26:05;13.80;1.00
5136;DHT22;2586;48.710;9.202;2022-09-16T17:28:32;13.80;1.00
5136;DHT22;2586;48.710;9.202;2022-09-16T17:31:10;13.70;1.00
5136;DHT22;2586;48.710;9.202;2022-09-16T17:33:36;13.60;1.00
5136;DHT22;2586;48.710;9.202;2022-09-16T17:36:04;13.60;1.00
5136;DHT22;2586;48.710;9.202;2022-09-16T17:38:30;13.60;99.90
5136;DHT22;2586;48.710;9.202;2022-09-16T17:41:03;13.50;99.90
5136;DHT22;2586;48.710;9.202;2022-09-16T17:43:30;13.50;99.90
5136;DHT22;2586;48.710;9.202;2022-09-16T17:45:57;13.50;99.90
5136;DHT22;2586;48.710;9.202;2022-09-16T17:48:23;13.40;1.00
5136;DHT22;2586;48.710;9.202;2022-09-16T17:50:49;13.30;1.00
5136;DHT22;2586;48.710;9.202;2022-09-16T17:53:15;13.20;99.90
5136;DHT22;2586;48.710;9.202;2022-09-16T17:55:41;13.10;34.60
5136;DHT22;2586;48.710;9.202;2022-09-16T17:58:06;13.00;99.90
5136;DHT22;2586;48.710;9.202;2022-09-16T18:00:32;12.90;1.00
5136;DHT22;2586;48.710;9.202;2022-09-16T18:02:58;12.80;1.00
5136;DHT22;2586;48.710;9.202;2022-09-16T18:05:23;12.60;1.00
5136;DHT22;2586;48.710;9.202;2022-09-16T18:07:49;12.50;99.90
5136;DHT22;2586;48.710;9.202;2022-09-16T18:10:14;12.30;99.90
5136;DHT22;2586;48.710;9.202;2022-09-16T18:12:40;12.20;99.90
5136;DHT22;2586;48.710;9.202;2022-09-16T18:15:06;12.20;99.90
5136;DHT22;2586;48.710;9.202;2022-09-16T18:17:31;12.20;99.90
5136;DHT22;2586;48.710;9.202;2022-09-16T18:19:57;12.20;99.90
5136;DHT22;2586;48.710;9.202;2022-09-16T18:22:22;12.10;1.00
5136;DHT22;2586;48.710;9.202;2022-09-16T18:24:48;12.10;1.00
5136;DHT22;2586;48.710;9.202;2022-09-16T18:27:13;12.10;17.80
5136;DHT22;2586;48.710;9.202;2022-09-16T18:29:39;12.00;1.00
5136;DHT22;2586;48.710;9.202;2022-09-16T18:32:06;11.90;1.00
5136;DHT22;2586;48.710;9.202;2022-09-16T18:34:31;11.80;99.90
5136;DHT22;2586;48.710;9.202;2022-09-16T18:36:57;11.80;99.90
5136;DHT22;2586;48.710;9.202;2022-09-16T18:39:23;11.70;1.00
5136;DHT22;2586;48.710;9.202;2022-09-16T18:41:48;11.60;1.00
5136;DHT22;2586;48.710;9.202;2022-09-16T18:44:19;11.40;1.00
5136;DHT22;2586;48.710;9.202;2022-09-16T18:46:46;11.40;99.90
5136;DHT22;2586;48.710;9.202;2022-09-16T18:49:13;11.30;99.90
5136;DHT22;2586;48.710;9.202;2022-09-16T18:51:41;11.30;99.90
5136;DHT22;2586;48.710;9.202;2022-09-16T18:54:11;11.30;99.90
5136;DHT22;2586;48.710;9.202;2022-09-16T18:56:39;11.30;99.90
5136;DHT22;2586;48.710;9.202;2022-09-16T18:59:05;11.20;99.90
5136;DHT22;2586;48.710;9.202;2022-09-16T19:01:33;11.20;1.00
5136;DHT22;2586;48.710;9.202;2022-09-16T19:04:02;11.20;1.00
5136;DHT22;2586;48.710;9.202;2022-09-16T19:06:30;11.20;99.90
5136;DHT22;2586;48.710;9.202;2022-09-16T19:08:57;11.10;99.90
5136;DHT22;2586;48.710;9.202;2022-09-16T19:11:22;11.10;99.90
5136;DHT22;2586;48.710;9.202;2022-09-16T19:13:48;11.00;99.90
5136;DHT22;2586;48.710;9.202;2022-09-16T19:16:14;11.00;99.90
5136;DHT22;2586;48.710;9.202;2022-09-16T19:18:40;11.00;99.90
5136;DHT22;2586;48.710;9.202;2022-09-16T19:21:12;10.90;99.90
5136;DHT22;2586;48.710;9.202;2022-09-16T19:23:40;10.90;99.90
5136;DHT22;2586;48.710;9.202;2022-09-16T19:26:06;10.90;99.90
5136;DHT22;2586;48.710;9.202;2022-09-16T19:28:32;10.90;1.00
5136;DHT22;2586;48.710;9.202;2022-09-16T19:31:02;10.90;99.90
5136;DHT22;2586;48.710;9.202;2022-09-16T19:33:29;11.00;1.00
5136;DHT22;2586;48.710;9.202;2022-09-16T19:35:54;10.90;99.90
5136;DHT22;2586;48.710;9.202;2022-09-16T19:38:20;11.00;99.90
5136;DHT22;2586;48.710;9.202;2022-09-16T19:40:48;10.90;1.00
5136;DHT22;2586;48.710;9.202;2022-09-16T19:43:13;10.80;99.90
5136;DHT22;2586;48.710;9.202;2022-09-16T19:45:40;10.70;1.00
5136;DHT22;2586;48.710;9.202;2022-09-16T19:48:05;10.70;99.90
5136;DHT22;2586;48.710;9.202;2022-09-16T19:50:31;10.60;1.00
5136;DHT22;2586;48.710;9.202;2022-09-16T19:52:56;10.70;99.90